Simpson, Canada
Current Conditions -  °F | °C
As of 3:00 AM on Thursday 23 Oct 2014 (Local Time) from CYXE Reporting Station
Few Clouds Few Clouds  
Wind Chill: 26°   Ceiling: Unl
Heat Index: 32°   Visibility: 15mi
Dew Point: 32°   Wind: 6mph
Humidity: 100%   Direction: 190°S
Pressure: 29.72"   Gusts: NA
Location:  51.45°N, 105.45°W
Report Text: CYXE 230900Z 19005KT 15SM FEW200 00/M00 A2972 RMK CI2 SLP080
Loading
Personal Weather Stations






























Interactive Weather Map
Tropical Storm Tracking
New forecast layout! Learn more

10-Day Weather Forecast

Advertisements
Track Severe Weather on mobile